sensor_id;sensor_type;location;lat;lon;timestamp;pressure;altitude;pressure_sealevel;temperature;humidity
77323;BME280;66384;51.052;9.850;2024-03-02T00:01:59;97473.08;;;5.78;80.29
77323;BME280;66384;51.052;9.850;2024-03-02T00:04:37;97469.92;;;5.75;80.33
77323;BME280;66384;51.052;9.850;2024-03-02T00:07:17;97469.38;;;5.74;80.33
77323;BME280;66384;51.052;9.850;2024-03-02T00:09:55;97467.79;;;5.71;80.19
77323;BME280;66384;51.052;9.850;2024-03-02T00:12:32;97467.39;;;5.69;80.12
77323;BME280;66384;51.052;9.850;2024-03-02T00:15:32;97463.58;;;5.66;80.13
77323;BME280;66384;51.052;9.850;2024-03-02T00:18:16;97465.05;;;5.64;79.90
77323;BME280;66384;51.052;9.850;2024-03-02T00:20:56;97466.63;;;5.59;79.85
77323;BME280;66384;51.052;9.850;2024-03-02T00:23:33;97462.95;;;5.55;79.84
77323;BME280;66384;51.052;9.850;2024-03-02T00:26:14;97466.12;;;5.53;79.82
77323;BME280;66384;51.052;9.850;2024-03-02T00:28:53;97469.95;;;5.49;79.77
77323;BME280;66384;51.052;9.850;2024-03-02T00:31:31;97470.08;;;5.47;79.81
77323;BME280;66384;51.052;9.850;2024-03-02T00:34:08;97471.58;;;5.46;79.76
77323;BME280;66384;51.052;9.850;2024-03-02T00:36:46;97468.83;;;5.45;79.61
77323;BME280;66384;51.052;9.850;2024-03-02T00:39:23;97468.48;;;5.45;79.54
77323;BME280;66384;51.052;9.850;2024-03-02T00:41:59;97464.96;;;5.41;79.34
77323;BME280;66384;51.052;9.850;2024-03-02T00:44:37;97472.00;;;5.36;79.31
77323;BME280;66384;51.052;9.850;2024-03-02T00:47:14;97468.67;;;5.33;79.37
77323;BME280;66384;51.052;9.850;2024-03-02T00:49:50;97467.61;;;5.32;79.39
77323;BME280;66384;51.052;9.850;2024-03-02T00:52:27;97472.17;;;5.30;79.41
77323;BME280;66384;51.052;9.850;2024-03-02T00:55:07;97472.95;;;5.28;79.32
77323;BME280;66384;51.052;9.850;2024-03-02T00:57:44;97470.95;;;5.22;79.24
77323;BME280;66384;51.052;9.850;2024-03-02T01:00:22;97470.55;;;5.14;79.27
77323;BME280;66384;51.052;9.850;2024-03-02T01:02:59;97470.73;;;5.09;79.39
77323;BME280;66384;51.052;9.850;2024-03-02T01:05:35;97471.92;;;5.09;79.60
77323;BME280;66384;51.052;9.850;2024-03-02T01:08:12;97474.66;;;5.09;79.57
77323;BME280;66384;51.052;9.850;2024-03-02T01:10:49;97478.06;;;5.09;79.53
77323;BME280;66384;51.052;9.850;2024-03-02T01:13:26;97476.66;;;5.07;79.41
77323;BME280;66384;51.052;9.850;2024-03-02T01:16:03;97479.88;;;5.07;79.39
77323;BME280;66384;51.052;9.850;2024-03-02T01:18:40;97477.81;;;5.06;79.43
77323;BME280;66384;51.052;9.850;2024-03-02T01:21:17;97481.02;;;5.05;79.32
77323;BME280;66384;51.052;9.850;2024-03-02T01:23:51;97479.10;;;5.03;79.28
77323;BME280;66384;51.052;9.850;2024-03-02T01:26:28;97476.42;;;4.99;79.26
77323;BME280;66384;51.052;9.850;2024-03-02T01:29:05;97474.98;;;4.96;79.38
77323;BME280;66384;51.052;9.850;2024-03-02T01:31:41;97471.46;;;4.92;79.45
77323;BME280;66384;51.052;9.850;2024-03-02T01:34:18;97471.02;;;4.89;79.57
77323;BME280;66384;51.052;9.850;2024-03-02T01:36:55;97470.66;;;4.87;79.74
77323;BME280;66384;51.052;9.850;2024-03-02T01:39:32;97470.42;;;4.86;79.72
77323;BME280;66384;51.052;9.850;2024-03-02T01:42:09;97470.03;;;4.84;79.82
77323;BME280;66384;51.052;9.850;2024-03-02T01:44:46;97472.61;;;4.84;79.80
77323;BME280;66384;51.052;9.850;2024-03-02T01:47:23;97471.38;;;4.83;79.77
77323;BME280;66384;51.052;9.850;2024-03-02T01:50:00;97468.27;;;4.82;79.81
77323;BME280;66384;51.052;9.850;2024-03-02T01:52:37;97462.61;;;4.81;79.88
77323;BME280;66384;51.052;9.850;2024-03-02T01:55:14;97463.46;;;4.81;79.95
77323;BME280;66384;51.052;9.850;2024-03-02T01:57:51;97452.73;;;4.81;79.98
77323;BME280;66384;51.052;9.850;2024-03-02T02:00:28;97458.67;;;4.80;80.00
77323;BME280;66384;51.052;9.850;2024-03-02T02:03:06;97460.73;;;4.81;80.00
77323;BME280;66384;51.052;9.850;2024-03-02T02:05:44;97459.71;;;4.81;80.00
77323;BME280;66384;51.052;9.850;2024-03-02T02:08:21;97459.19;;;4.80;79.84
77323;BME280;66384;51.052;9.850;2024-03-02T02:10:58;97457.25;;;4.78;79.91
77323;BME280;66384;51.052;9.850;2024-03-02T02:13:35;97459.24;;;4.76;79.79
77323;BME280;66384;51.052;9.850;2024-03-02T02:16:13;97457.95;;;4.72;79.90
77323;BME280;66384;51.052;9.850;2024-03-02T02:18:46;97457.89;;;4.71;79.94
77323;BME280;66384;51.052;9.850;2024-03-02T02:21:25;97453.09;;;4.69;80.08
77323;BME280;66384;51.052;9.850;2024-03-02T02:24:02;97450.52;;;4.69;80.10
77323;BME280;66384;51.052;9.850;2024-03-02T02:26:39;97449.30;;;4.68;79.99
77323;BME280;66384;51.052;9.850;2024-03-02T02:29:16;97447.09;;;4.68;79.99
77323;BME280;66384;51.052;9.850;2024-03-02T02:31:52;97445.04;;;4.68;80.01
77323;BME280;66384;51.052;9.850;2024-03-02T02:34:29;97441.39;;;4.66;79.77
77323;BME280;66384;51.052;9.850;2024-03-02T02:37:05;97443.02;;;4.62;79.88
77323;BME280;66384;51.052;9.850;2024-03-02T02:39:42;97443.41;;;4.58;79.72
77323;BME280;66384;51.052;9.850;2024-03-02T02:42:20;97448.16;;;4.52;79.78
77323;BME280;66384;51.052;9.850;2024-03-02T02:44:56;97442.23;;;4.47;80.01
77323;BME280;66384;51.052;9.850;2024-03-02T02:47:33;97436.38;;;4.45;79.97
77323;BME280;66384;51.052;9.850;2024-03-02T02:50:13;97431.02;;;4.42;79.99
77323;BME280;66384;51.052;9.850;2024-03-02T02:52:50;97429.75;;;4.40;79.89
77323;BME280;66384;51.052;9.850;2024-03-02T02:55:26;97433.40;;;4.37;79.87
77323;BME280;66384;51.052;9.850;2024-03-02T02:58:03;97430.22;;;4.32;79.83
77323;BME280;66384;51.052;9.850;2024-03-02T03:00:40;97430.99;;;4.30;79.98
77323;BME280;66384;51.052;9.850;2024-03-02T03:03:17;97427.03;;;4.29;79.98
77323;BME280;66384;51.052;9.850;2024-03-02T03:05:54;97425.59;;;4.26;80.09
77323;BME280;66384;51.052;9.850;2024-03-02T03:08:30;97424.55;;;4.26;80.10
77323;BME280;66384;51.052;9.850;2024-03-02T03:11:05;97426.22;;;4.24;79.94
77323;BME280;66384;51.052;9.850;2024-03-02T03:13:41;97425.80;;;4.21;79.74
77323;BME280;66384;51.052;9.850;2024-03-02T03:16:18;97427.55;;;4.18;79.53
77323;BME280;66384;51.052;9.850;2024-03-02T03:18:55;97429.67;;;4.15;79.63
77323;BME280;66384;51.052;9.850;2024-03-02T03:21:32;97429.09;;;4.12;79.68
77323;BME280;66384;51.052;9.850;2024-03-02T03:24:09;97424.41;;;4.09;79.53
77323;BME280;66384;51.052;9.850;2024-03-02T03:26:46;97419.88;;;4.06;79.37
77323;BME280;66384;51.052;9.850;2024-03-02T03:29:22;97413.15;;;4.03;79.34
77323;BME280;66384;51.052;9.850;2024-03-02T03:31:59;97411.00;;;3.99;79.15
77323;BME280;66384;51.052;9.850;2024-03-02T03:34:37;97415.14;;;3.96;79.28
77323;BME280;66384;51.052;9.850;2024-03-02T03:37:17;97419.26;;;3.92;79.26
77323;BME280;66384;51.052;9.850;2024-03-02T03:39:53;97419.98;;;3.87;79.37
77323;BME280;66384;51.052;9.850;2024-03-02T03:42:31;97416.83;;;3.84;79.43
77323;BME280;66384;51.052;9.850;2024-03-02T03:45:09;97413.86;;;3.82;79.24
77323;BME280;66384;51.052;9.850;2024-03-02T03:47:46;97408.19;;;3.80;79.26
77323;BME280;66384;51.052;9.850;2024-03-02T03:50:22;97411.75;;;3.80;79.21
77323;BME280;66384;51.052;9.850;2024-03-02T03:52:59;97414.98;;;3.79;79.34
77323;BME280;66384;51.052;9.850;2024-03-02T03:55:36;97417.85;;;3.79;79.14
77323;BME280;66384;51.052;9.850;2024-03-02T03:58:12;97412.36;;;3.78;79.11
77323;BME280;66384;51.052;9.850;2024-03-02T04:00:54;97413.14;;;3.76;78.99
77323;BME280;66384;51.052;9.850;2024-03-02T04:03:31;97413.95;;;3.74;78.93
77323;BME280;66384;51.052;9.850;2024-03-02T04:06:08;97414.36;;;3.71;78.82
77323;BME280;66384;51.052;9.850;2024-03-02T04:08:46;97409.89;;;3.64;78.80
77323;BME280;66384;51.052;9.850;2024-03-02T04:11:23;97405.50;;;3.60;78.96
77323;BME280;66384;51.052;9.850;2024-03-02T04:14:00;97408.98;;;3.57;79.21
77323;BME280;66384;51.052;9.850;2024-03-02T04:16:40;97406.23;;;3.56;79.37
77323;BME280;66384;51.052;9.850;2024-03-02T04:19:17;97404.64;;;3.54;79.12
77323;BME280;66384;51.052;9.850;2024-03-02T04:21:54;97406.33;;;3.49;79.03
77323;BME280;66384;51.052;9.850;2024-03-02T04:24:33;97405.88;;;3.46;79.01
77323;BME280;66384;51.052;9.850;2024-03-02T04:27:10;97410.89;;;3.43;78.93
77323;BME280;66384;51.052;9.850;2024-03-02T04:29:47;97410.14;;;3.40;78.78
77323;BME280;66384;51.052;9.850;2024-03-02T04:32:24;97407.13;;;3.37;78.85
77323;BME280;66384;51.052;9.850;2024-03-02T04:35:01;97405.84;;;3.34;78.70
77323;BME280;66384;51.052;9.850;2024-03-02T04:37:38;97409.98;;;3.31;78.64
77323;BME280;66384;51.052;9.850;2024-03-02T04:40:15;97412.92;;;3.27;78.63
77323;BME280;66384;51.052;9.850;2024-03-02T04:42:49;97408.96;;;3.26;78.68
77323;BME280;66384;51.052;9.850;2024-03-02T04:45:26;97418.45;;;3.25;78.51
77323;BME280;66384;51.052;9.850;2024-03-02T04:48:03;97422.63;;;3.23;78.30
77323;BME280;66384;51.052;9.850;2024-03-02T04:50:39;97421.85;;;3.15;78.25
77323;BME280;66384;51.052;9.850;2024-03-02T04:53:16;97420.41;;;3.13;78.39
77323;BME280;66384;51.052;9.850;2024-03-02T04:55:53;97420.20;;;3.12;78.40
77323;BME280;66384;51.052;9.850;2024-03-02T04:58:48;97418.02;;;3.12;78.28
77323;BME280;66384;51.052;9.850;2024-03-02T05:01:24;97417.84;;;3.12;78.20
77323;BME280;66384;51.052;9.850;2024-03-02T05:04:01;97421.24;;;3.12;78.16
77323;BME280;66384;51.052;9.850;2024-03-02T05:06:38;97423.80;;;3.13;77.99
77323;BME280;66384;51.052;9.850;2024-03-02T05:09:16;97423.95;;;3.12;77.78
77323;BME280;66384;51.052;9.850;2024-03-02T05:11:53;97426.94;;;3.10;77.50
77323;BME280;66384;51.052;9.850;2024-03-02T05:14:44;97429.08;;;3.08;77.46
77323;BME280;66384;51.052;9.850;2024-03-02T05:17:20;97431.07;;;3.06;77.26
77323;BME280;66384;51.052;9.850;2024-03-02T05:19:57;97429.66;;;3.05;77.07
77323;BME280;66384;51.052;9.850;2024-03-02T05:22:34;97435.02;;;3.04;76.98
77323;BME280;66384;51.052;9.850;2024-03-02T05:25:11;97437.35;;;3.02;76.82
77323;BME280;66384;51.052;9.850;2024-03-02T05:27:48;97433.50;;;2.99;76.69
77323;BME280;66384;51.052;9.850;2024-03-02T05:30:25;97434.08;;;2.96;76.56
77323;BME280;66384;51.052;9.850;2024-03-02T05:33:02;97429.77;;;2.94;76.64
77323;BME280;66384;51.052;9.850;2024-03-02T05:35:39;97433.58;;;2.91;76.81
77323;BME280;66384;51.052;9.850;2024-03-02T05:38:16;97441.53;;;2.90;76.92
77323;BME280;66384;51.052;9.850;2024-03-02T05:40:52;97440.14;;;2.89;76.67
77323;BME280;66384;51.052;9.850;2024-03-02T05:43:29;97440.70;;;2.86;76.52
77323;BME280;66384;51.052;9.850;2024-03-02T05:46:06;97447.89;;;2.84;76.55
77323;BME280;66384;51.052;9.850;2024-03-02T05:48:42;97448.52;;;2.82;76.46
77323;BME280;66384;51.052;9.850;2024-03-02T05:51:19;97451.43;;;2.78;76.38
77323;BME280;66384;51.052;9.850;2024-03-02T05:53:55;97454.84;;;2.73;76.60
77323;BME280;66384;51.052;9.850;2024-03-02T05:56:32;97460.91;;;2.68;76.83
77323;BME280;66384;51.052;9.850;2024-03-02T05:59:09;97461.66;;;2.65;76.98
77323;BME280;66384;51.052;9.850;2024-03-02T06:01:50;97463.61;;;2.62;76.97
77323;BME280;66384;51.052;9.850;2024-03-02T06:04:26;97468.81;;;2.61;77.12
77323;BME280;66384;51.052;9.850;2024-03-02T06:07:03;97469.98;;;2.60;77.17
77323;BME280;66384;51.052;9.850;2024-03-02T06:09:40;97471.45;;;2.59;77.29
77323;BME280;66384;51.052;9.850;2024-03-02T06:12:18;97471.42;;;2.58;77.54
77323;BME280;66384;51.052;9.850;2024-03-02T06:14:55;97472.11;;;2.59;77.75
77323;BME280;66384;51.052;9.850;2024-03-02T06:17:32;97469.45;;;2.60;77.81
77323;BME280;66384;51.052;9.850;2024-03-02T06:20:10;97473.79;;;2.63;77.84
77323;BME280;66384;51.052;9.850;2024-03-02T06:22:47;97476.17;;;2.63;78.07
77323;BME280;66384;51.052;9.850;2024-03-02T06:25:24;97476.92;;;2.60;78.00
77323;BME280;66384;51.052;9.850;2024-03-02T06:28:00;97480.59;;;2.58;78.19
77323;BME280;66384;51.052;9.850;2024-03-02T06:30:37;97481.77;;;2.54;78.32
77323;BME280;66384;51.052;9.850;2024-03-02T06:33:14;97479.76;;;2.45;78.47
77323;BME280;66384;51.052;9.850;2024-03-02T06:35:51;97483.00;;;2.41;78.97
77323;BME280;66384;51.052;9.850;2024-03-02T06:38:28;97487.11;;;2.42;79.21
77323;BME280;66384;51.052;9.850;2024-03-02T06:41:06;97484.73;;;2.47;79.43
77323;BME280;66384;51.052;9.850;2024-03-02T06:43:40;97485.29;;;2.53;79.38
77323;BME280;66384;51.052;9.850;2024-03-02T06:46:16;97486.78;;;2.56;79.37
77323;BME280;66384;51.052;9.850;2024-03-02T06:48:53;97489.63;;;2.59;79.23
77323;BME280;66384;51.052;9.850;2024-03-02T06:51:30;97492.73;;;2.60;79.13
77323;BME280;66384;51.052;9.850;2024-03-02T06:54:07;97498.55;;;2.62;79.24
77323;BME280;66384;51.052;9.850;2024-03-02T06:56:44;97502.55;;;2.64;79.27
77323;BME280;66384;51.052;9.850;2024-03-02T06:59:20;97501.48;;;2.67;79.35
77323;BME280;66384;51.052;9.850;2024-03-02T07:01:58;97503.94;;;2.70;79.51
77323;BME280;66384;51.052;9.850;2024-03-02T07:04:35;97500.23;;;2.75;79.52
77323;BME280;66384;51.052;9.850;2024-03-02T07:07:12;97500.06;;;2.80;79.50
77323;BME280;66384;51.052;9.850;2024-03-02T07:09:49;97502.63;;;2.85;79.49
77323;BME280;66384;51.052;9.850;2024-03-02T07:12:26;97502.83;;;2.86;79.65
77323;BME280;66384;51.052;9.850;2024-03-02T07:15:03;97508.52;;;2.88;79.84
77323;BME280;66384;51.052;9.850;2024-03-02T07:18:10;97508.62;;;2.91;80.05
77323;BME280;66384;51.052;9.850;2024-03-02T07:20:48;97513.44;;;2.93;80.23
77323;BME280;66384;51.052;9.850;2024-03-02T07:23:24;97514.95;;;2.97;80.37
77323;BME280;66384;51.052;9.850;2024-03-02T07:26:03;97515.48;;;3.02;80.52
77323;BME280;66384;51.052;9.850;2024-03-02T07:28:42;97521.27;;;3.07;80.61
77323;BME280;66384;51.052;9.850;2024-03-02T07:31:19;97524.73;;;3.09;80.66
77323;BME280;66384;51.052;9.850;2024-03-02T07:33:56;97526.34;;;3.11;80.77
77323;BME280;66384;51.052;9.850;2024-03-02T07:36:33;97527.26;;;3.13;80.94
77323;BME280;66384;51.052;9.850;2024-03-02T07:39:10;97531.13;;;3.16;80.88
77323;BME280;66384;51.052;9.850;2024-03-02T07:41:47;97529.30;;;3.23;81.05
77323;BME280;66384;51.052;9.850;2024-03-02T07:44:24;97528.55;;;3.30;81.09
77323;BME280;66384;51.052;9.850;2024-03-02T07:47:00;97529.11;;;3.41;81.05
77323;BME280;66384;51.052;9.850;2024-03-02T07:49:38;97531.48;;;3.50;81.17
77323;BME280;66384;51.052;9.850;2024-03-02T07:52:15;97534.95;;;3.57;81.27
77323;BME280;66384;51.052;9.850;2024-03-02T07:54:52;97538.94;;;3.65;81.30
77323;BME280;66384;51.052;9.850;2024-03-02T07:57:29;97539.13;;;3.75;81.33
77323;BME280;66384;51.052;9.850;2024-03-02T08:00:07;97542.42;;;3.87;81.44
77323;BME280;66384;51.052;9.850;2024-03-02T08:02:44;97541.63;;;3.99;81.52
77323;BME280;66384;51.052;9.850;2024-03-02T08:05:21;97545.95;;;4.11;81.56
77323;BME280;66384;51.052;9.850;2024-03-02T08:07:58;97549.21;;;4.23;81.57
77323;BME280;66384;51.052;9.850;2024-03-02T08:10:35;97545.17;;;4.34;81.74
77323;BME280;66384;51.052;9.850;2024-03-02T08:13:12;97549.11;;;4.46;81.53
77323;BME280;66384;51.052;9.850;2024-03-02T08:15:48;97552.20;;;4.58;81.89
77323;BME280;66384;51.052;9.850;2024-03-02T08:18:26;97549.78;;;4.68;81.78
77323;BME280;66384;51.052;9.850;2024-03-02T08:21:03;97550.12;;;4.79;82.08
77323;BME280;66384;51.052;9.850;2024-03-02T08:23:41;97551.11;;;4.89;82.21
77323;BME280;66384;51.052;9.850;2024-03-02T08:26:18;97550.90;;;4.99;82.44
77323;BME280;66384;51.052;9.850;2024-03-02T08:28:55;97549.30;;;5.09;82.63
77323;BME280;66384;51.052;9.850;2024-03-02T08:31:32;97546.86;;;5.19;82.81
77323;BME280;66384;51.052;9.850;2024-03-02T08:34:13;97540.33;;;5.29;82.79
77323;BME280;66384;51.052;9.850;2024-03-02T08:36:51;97541.80;;;5.39;82.63
77323;BME280;66384;51.052;9.850;2024-03-02T08:39:25;97539.86;;;5.48;82.82
77323;BME280;66384;51.052;9.850;2024-03-02T08:42:02;97538.39;;;5.58;82.99
77323;BME280;66384;51.052;9.850;2024-03-02T08:44:38;97533.17;;;5.66;83.02
77323;BME280;66384;51.052;9.850;2024-03-02T08:47:15;97530.52;;;5.76;83.51
77323;BME280;66384;51.052;9.850;2024-03-02T08:49:53;97533.45;;;5.84;83.83
77323;BME280;66384;51.052;9.850;2024-03-02T08:52:33;97542.05;;;5.92;83.74
77323;BME280;66384;51.052;9.850;2024-03-02T08:55:11;97540.71;;;6.00;83.85
77323;BME280;66384;51.052;9.850;2024-03-02T08:57:48;97545.04;;;6.09;83.72
77323;BME280;66384;51.052;9.850;2024-03-02T09:00:25;97543.21;;;6.18;83.82
77323;BME280;66384;51.052;9.850;2024-03-02T09:03:02;97545.49;;;6.27;83.80
77323;BME280;66384;51.052;9.850;2024-03-02T09:05:39;97547.42;;;6.36;83.73
77323;BME280;66384;51.052;9.850;2024-03-02T09:08:16;97545.27;;;6.46;83.59
77323;BME280;66384;51.052;9.850;2024-03-02T09:10:53;97541.23;;;6.55;83.59
77323;BME280;66384;51.052;9.850;2024-03-02T09:13:30;97537.54;;;6.67;83.43
77323;BME280;66384;51.052;9.850;2024-03-02T09:16:07;97536.77;;;6.77;83.42
77323;BME280;66384;51.052;9.850;2024-03-02T09:18:44;97534.98;;;6.90;83.27
77323;BME280;66384;51.052;9.850;2024-03-02T09:21:21;97538.34;;;7.04;83.12
77323;BME280;66384;51.052;9.850;2024-03-02T09:23:59;97533.86;;;7.18;82.94
77323;BME280;66384;51.052;9.850;2024-03-02T09:26:35;97529.70;;;7.32;82.51
77323;BME280;66384;51.052;9.850;2024-03-02T09:29:12;97535.95;;;7.45;82.21
77323;BME280;66384;51.052;9.850;2024-03-02T09:31:49;97535.02;;;7.58;81.71
77323;BME280;66384;51.052;9.850;2024-03-02T09:34:25;97535.63;;;7.73;81.20
77323;BME280;66384;51.052;9.850;2024-03-02T09:37:02;97530.63;;;7.89;81.08
77323;BME280;66384;51.052;9.850;2024-03-02T09:39:38;97534.16;;;8.06;80.59
77323;BME280;66384;51.052;9.850;2024-03-02T09:42:15;97535.63;;;8.22;80.10
77323;BME280;66384;51.052;9.850;2024-03-02T09:44:55;97535.73;;;8.38;79.46
77323;BME280;66384;51.052;9.850;2024-03-02T09:47:33;97536.85;;;8.53;78.87
77323;BME280;66384;51.052;9.850;2024-03-02T09:50:11;97533.15;;;8.68;78.48
77323;BME280;66384;51.052;9.850;2024-03-02T09:52:50;97535.43;;;8.84;78.02
77323;BME280;66384;51.052;9.850;2024-03-02T09:55:28;97538.05;;;9.00;77.40
77323;BME280;66384;51.052;9.850;2024-03-02T09:58:05;97536.02;;;9.15;77.20
77323;BME280;66384;51.052;9.850;2024-03-02T10:00:42;97540.13;;;9.28;76.64
77323;BME280;66384;51.052;9.850;2024-03-02T10:03:21;97544.58;;;9.41;76.27
77323;BME280;66384;51.052;9.850;2024-03-02T10:06:22;97548.71;;;9.55;75.90
77323;BME280;66384;51.052;9.850;2024-03-02T10:09:00;97549.73;;;9.71;75.34
77323;BME280;66384;51.052;9.850;2024-03-02T10:11:37;97551.39;;;9.81;75.01
77323;BME280;66384;51.052;9.850;2024-03-02T10:14:14;97556.13;;;9.91;74.56
77323;BME280;66384;51.052;9.850;2024-03-02T10:16:51;97555.54;;;10.00;74.29
77323;BME280;66384;51.052;9.850;2024-03-02T10:19:25;97557.16;;;10.08;73.62
77323;BME280;66384;51.052;9.850;2024-03-02T10:22:07;97555.14;;;10.13;73.06
77323;BME280;66384;51.052;9.850;2024-03-02T10:24:45;97554.84;;;10.18;72.68
77323;BME280;66384;51.052;9.850;2024-03-02T10:27:30;97555.06;;;10.22;72.40
77323;BME280;66384;51.052;9.850;2024-03-02T10:30:09;97551.84;;;10.26;72.24
77323;BME280;66384;51.052;9.850;2024-03-02T10:32:47;97551.89;;;10.30;72.12
77323;BME280;66384;51.052;9.850;2024-03-02T10:35:26;97551.08;;;10.35;72.04
77323;BME280;66384;51.052;9.850;2024-03-02T10:38:06;97550.95;;;10.40;71.62
77323;BME280;66384;51.052;9.850;2024-03-02T10:40:43;97551.36;;;10.47;71.60
77323;BME280;66384;51.052;9.850;2024-03-02T10:43:23;97549.16;;;10.53;71.34
77323;BME280;66384;51.052;9.850;2024-03-02T10:46:00;97545.09;;;10.60;70.89
77323;BME280;66384;51.052;9.850;2024-03-02T10:48:38;97550.30;;;10.66;69.62
77323;BME280;66384;51.052;9.850;2024-03-02T10:51:17;97550.32;;;10.68;69.17
77323;BME280;66384;51.052;9.850;2024-03-02T10:53:54;97543.80;;;10.73;68.62
77323;BME280;66384;51.052;9.850;2024-03-02T10:56:32;97545.20;;;10.77;68.42
77323;BME280;66384;51.052;9.850;2024-03-02T10:59:21;97543.52;;;10.83;68.35
77323;BME280;66384;51.052;9.850;2024-03-02T11:02:00;97543.93;;;10.90;67.85
77323;BME280;66384;51.052;9.850;2024-03-02T11:04:39;97546.20;;;10.96;67.63
77323;BME280;66384;51.052;9.850;2024-03-02T11:07:17;97541.75;;;11.01;66.83
77323;BME280;66384;51.052;9.850;2024-03-02T11:09:57;97537.66;;;11.08;66.54
77323;BME280;66384;51.052;9.850;2024-03-02T11:12:51;97537.34;;;11.13;66.12
77323;BME280;66384;51.052;9.850;2024-03-02T11:15:30;97537.89;;;11.18;65.59
77323;BME280;66384;51.052;9.850;2024-03-02T11:18:08;97539.63;;;11.21;65.02
77323;BME280;66384;51.052;9.850;2024-03-02T11:20:45;97540.67;;;11.23;64.63
77323;BME280;66384;51.052;9.850;2024-03-02T11:23:34;97544.98;;;11.25;64.09
77323;BME280;66384;51.052;9.850;2024-03-02T11:26:24;97541.39;;;11.28;63.73
77323;BME280;66384;51.052;9.850;2024-03-02T11:29:02;97541.21;;;11.28;63.66
77323;BME280;66384;51.052;9.850;2024-03-02T11:32:00;97539.67;;;11.30;62.98
77323;BME280;66384;51.052;9.850;2024-03-02T11:34:37;97541.23;;;11.30;62.35
77323;BME280;66384;51.052;9.850;2024-03-02T11:37:19;97542.43;;;11.32;62.67
77323;BME280;66384;51.052;9.850;2024-03-02T11:39:56;97540.73;;;11.38;63.41
77323;BME280;66384;51.052;9.850;2024-03-02T11:42:33;97537.48;;;11.42;63.80
77323;BME280;66384;51.052;9.850;2024-03-02T11:45:11;97535.59;;;11.44;63.88
77323;BME280;66384;51.052;9.850;2024-03-02T11:47:52;97533.70;;;11.43;63.52
77323;BME280;66384;51.052;9.850;2024-03-02T11:50:39;97532.33;;;11.48;63.82
77323;BME280;66384;51.052;9.850;2024-03-02T11:53:18;97533.75;;;11.56;63.84
77323;BME280;66384;51.052;9.850;2024-03-02T11:55:58;97528.08;;;11.62;63.47
77323;BME280;66384;51.052;9.850;2024-03-02T11:58:37;97525.68;;;11.63;63.05
77323;BME280;66384;51.052;9.850;2024-03-02T12:01:16;97523.79;;;11.65;62.96
77323;BME280;66384;51.052;9.850;2024-03-02T12:03:53;97516.39;;;11.69;62.79
77323;BME280;66384;51.052;9.850;2024-03-02T12:06:27;97513.81;;;11.74;62.59
77323;BME280;66384;51.052;9.850;2024-03-02T12:09:04;97513.31;;;11.80;62.27
77323;BME280;66384;51.052;9.850;2024-03-02T12:11:45;97506.13;;;11.87;62.08
77323;BME280;66384;51.052;9.850;2024-03-02T12:14:21;97508.20;;;11.96;62.39
77323;BME280;66384;51.052;9.850;2024-03-02T12:17:02;97507.35;;;11.99;61.63
77323;BME280;66384;51.052;9.850;2024-03-02T12:19:39;97506.67;;;12.05;61.77
77323;BME280;66384;51.052;9.850;2024-03-02T12:22:16;97505.48;;;12.12;61.51
77323;BME280;66384;51.052;9.850;2024-03-02T12:24:53;97510.83;;;12.18;61.50
77323;BME280;66384;51.052;9.850;2024-03-02T12:27:31;97507.02;;;12.17;60.95
77323;BME280;66384;51.052;9.850;2024-03-02T12:30:09;97500.83;;;12.15;61.02
77323;BME280;66384;51.052;9.850;2024-03-02T12:32:48;97505.64;;;12.11;60.67
77323;BME280;66384;51.052;9.850;2024-03-02T12:35:27;97503.92;;;12.05;60.73
77323;BME280;66384;51.052;9.850;2024-03-02T12:38:03;97501.33;;;12.01;61.04
77323;BME280;66384;51.052;9.850;2024-03-02T12:40:38;97496.14;;;11.97;61.11
77323;BME280;66384;51.052;9.850;2024-03-02T12:43:14;97494.08;;;11.91;61.19
77323;BME280;66384;51.052;9.850;2024-03-02T12:45:52;97488.56;;;11.87;61.49
77323;BME280;66384;51.052;9.850;2024-03-02T12:48:29;97479.77;;;11.86;61.15
77323;BME280;66384;51.052;9.850;2024-03-02T12:51:07;97478.73;;;11.90;60.71
77323;BME280;66384;51.052;9.850;2024-03-02T12:53:41;97473.58;;;12.02;61.11
77323;BME280;66384;51.052;9.850;2024-03-02T12:56:18;97472.89;;;12.15;60.69
77323;BME280;66384;51.052;9.850;2024-03-02T12:58:58;97469.10;;;12.22;60.01
77323;BME280;66384;51.052;9.850;2024-03-02T13:01:36;97472.20;;;12.34;60.06
77323;BME280;66384;51.052;9.850;2024-03-02T13:04:13;97468.73;;;12.46;60.01
77323;BME280;66384;51.052;9.850;2024-03-02T13:06:50;97465.79;;;12.62;59.60
77323;BME280;66384;51.052;9.850;2024-03-02T13:09:28;97462.82;;;12.78;59.41
77323;BME280;66384;51.052;9.850;2024-03-02T13:12:08;97462.27;;;12.92;58.75
77323;BME280;66384;51.052;9.850;2024-03-02T13:14:47;97455.51;;;13.04;58.35
77323;BME280;66384;51.052;9.850;2024-03-02T13:17:24;97454.12;;;13.05;57.82
77323;BME280;66384;51.052;9.850;2024-03-02T13:20:09;97455.68;;;13.03;57.57
77323;BME280;66384;51.052;9.850;2024-03-02T13:22:48;97451.52;;;13.05;57.62
77323;BME280;66384;51.052;9.850;2024-03-02T13:25:26;97449.09;;;13.11;57.40
77323;BME280;66384;51.052;9.850;2024-03-02T13:28:06;97452.52;;;13.15;57.04
77323;BME280;66384;51.052;9.850;2024-03-02T13:30:43;97451.83;;;13.16;57.13
77323;BME280;66384;51.052;9.850;2024-03-02T13:33:21;97446.83;;;13.16;56.95
77323;BME280;66384;51.052;9.850;2024-03-02T13:35:59;97440.77;;;13.23;56.91
77323;BME280;66384;51.052;9.850;2024-03-02T13:38:37;97438.47;;;13.35;56.01
77323;BME280;66384;51.052;9.850;2024-03-02T13:41:14;97435.52;;;13.39;56.17
77323;BME280;66384;51.052;9.850;2024-03-02T13:43:51;97434.47;;;13.41;55.51
77323;BME280;66384;51.052;9.850;2024-03-02T13:46:27;97438.71;;;13.55;55.28
77323;BME280;66384;51.052;9.850;2024-03-02T13:49:04;97436.72;;;13.70;55.11
77323;BME280;66384;51.052;9.850;2024-03-02T13:51:41;97433.68;;;13.85;55.05
77323;BME280;66384;51.052;9.850;2024-03-02T13:54:19;97430.30;;;13.95;54.47
77323;BME280;66384;51.052;9.850;2024-03-02T13:56:56;97429.01;;;14.08;54.24
77323;BME280;66384;51.052;9.850;2024-03-02T13:59:33;97425.20;;;14.09;53.68
77323;BME280;66384;51.052;9.850;2024-03-02T14:02:11;97425.20;;;14.07;53.65
77323;BME280;66384;51.052;9.850;2024-03-02T14:04:48;97423.86;;;14.03;53.19